createdAt,value
2022-12-18T00:01:00.864Z,92691.94
2022-12-18T00:04:09.644Z,92702.72
2022-12-18T00:07:12.740Z,92699.94
2022-12-18T00:10:15.792Z,92698.16
2022-12-18T00:13:21.882Z,92698.84
2022-12-18T00:16:26.606Z,92698.09
2022-12-18T00:19:29.792Z,92698.75
2022-12-18T00:22:32.991Z,92707.78
2022-12-18T00:25:37.835Z,92700.44
2022-12-18T00:28:41.410Z,92693.31
2022-12-18T00:31:45.316Z,92696.94
2022-12-18T00:34:48.356Z,92689.44
2022-12-18T00:37:51.918Z,92697.09
2022-12-18T00:40:55.128Z,92692.03
2022-12-18T00:43:58.234Z,92693.06
2022-12-18T00:47:01.376Z,92695.88
2022-12-18T00:50:05.047Z,92690.88
2022-12-18T00:53:08.203Z,92691.44
2022-12-18T00:56:11.276Z,92695.91
2022-12-18T00:59:14.316Z,92695.34
2022-12-18T01:02:18.041Z,92690.66
2022-12-18T01:05:20.975Z,92689.63
2022-12-18T01:08:24.372Z,92687.81
2022-12-18T01:11:27.848Z,92692.41
2022-12-18T01:14:30.912Z,92697.97
2022-12-18T01:17:34.713Z,92698.38
2022-12-18T01:20:37.454Z,92697.84
2022-12-18T01:23:42.728Z,92699.75
2022-12-18T01:26:45.958Z,92704.06
2022-12-18T01:29:51.632Z,92704.00
2022-12-18T01:32:56.044Z,92714.09
2022-12-18T01:35:59.160Z,92708.03
2022-12-18T01:39:05.945Z,92712.22
2022-12-18T01:42:17.309Z,92712.44
2022-12-18T01:45:20.632Z,92709.94
2022-12-18T01:48:23.713Z,92715.03
2022-12-18T01:51:28.762Z,92712.16
2022-12-18T01:54:31.906Z,92710.72
2022-12-18T01:57:35.484Z,92704.25
2022-12-18T02:00:39.072Z,92711.72
2022-12-18T02:03:45.905Z,92709.03
2022-12-18T02:07:09.569Z,92707.53
2022-12-18T02:10:31.475Z,92705.59
2022-12-18T02:13:52.892Z,92707.56
2022-12-18T02:17:12.836Z,92713.19
2022-12-18T02:20:20.073Z,92712.78
2022-12-18T02:23:54.054Z,92715.97
2022-12-18T02:27:08.217Z,92724.53
2022-12-18T02:30:12.487Z,92720.47
2022-12-18T02:33:16.980Z,92718.66
2022-12-18T02:36:22.687Z,92721.41
2022-12-18T02:39:28.692Z,92723.41
2022-12-18T02:42:37.255Z,92716.25
2022-12-18T02:45:58.559Z,92717.31
2022-12-18T02:49:21.236Z,92720.84
2022-12-18T02:52:36.823Z,92721.59
2022-12-18T02:56:09.575Z,92711.47
2022-12-18T02:59:25.045Z,92708.94
2022-12-18T03:02:48.162Z,92708.94
2022-12-18T03:06:06.415Z,92703.09
2022-12-18T03:09:12.922Z,92707.13
2022-12-18T03:12:26.448Z,92701.44
2022-12-18T03:15:55.068Z,92702.59
2022-12-18T03:19:03.362Z,92698.59
2022-12-18T03:22:10.617Z,92701.44
2022-12-18T03:25:27.507Z,92696.59
2022-12-18T03:28:33.643Z,92700.81
2022-12-18T03:31:43.514Z,92696.09
2022-12-18T03:34:51.531Z,92698.63
2022-12-18T03:37:57.843Z,92688.56
2022-12-18T03:41:33.442Z,92692.66
2022-12-18T03:45:03.744Z,92683.63
2022-12-18T03:48:19.072Z,92681.25
2022-12-18T03:51:46.031Z,92681.63
2022-12-18T03:54:49.967Z,92679.41
2022-12-18T03:57:55.165Z,92687.16
2022-12-18T04:01:04.028Z,92685.63
2022-12-18T04:04:10.448Z,92677.41
2022-12-18T04:07:18.957Z,92676.59
2022-12-18T04:10:22.658Z,92676.41
2022-12-18T04:13:30.347Z,92679.09
2022-12-18T04:16:35.886Z,92671.53
2022-12-18T04:19:41.529Z,92667.88
2022-12-18T04:22:45.323Z,92676.25
2022-12-18T04:25:50.186Z,92671.88
2022-12-18T04:29:03.661Z,92678.75
2022-12-18T04:32:07.259Z,92667.88
2022-12-18T04:35:12.242Z,92667.00
2022-12-18T04:38:18.992Z,92664.00
2022-12-18T04:41:26.008Z,92651.06
2022-12-18T04:44:30.241Z,92651.59
2022-12-18T04:47:33.450Z,92651.56
2022-12-18T04:50:36.592Z,92640.84
2022-12-18T04:53:39.899Z,92640.03
2022-12-18T04:56:43.730Z,92637.97
2022-12-18T04:59:46.889Z,92629.94
2022-12-18T05:02:50.149Z,92625.22
2022-12-18T05:05:53.662Z,92622.72
2022-12-18T05:08:56.923Z,92623.88
2022-12-18T05:11:59.997Z,92625.56
2022-12-18T05:15:03.090Z,92626.88
2022-12-18T05:18:06.295Z,92623.38
2022-12-18T05:21:09.543Z,92629.91
2022-12-18T05:24:13.183Z,92627.91
2022-12-18T05:27:16.469Z,92621.66
2022-12-18T05:30:19.765Z,92623.34
2022-12-18T05:33:24.285Z,92622.69
2022-12-18T05:36:27.403Z,92618.97
2022-12-18T05:39:30.648Z,92621.34
2022-12-18T05:42:33.654Z,92623.34
2022-12-18T05:45:39.924Z,92628.72
2022-12-18T05:48:44.206Z,92620.13
2022-12-18T05:51:47.580Z,92629.84
2022-12-18T05:54:50.719Z,92631.00
2022-12-18T05:57:53.839Z,92622.97
2022-12-18T06:00:56.894Z,92613.03
2022-12-18T06:04:00.577Z,92616.06
2022-12-18T06:07:03.864Z,92619.25
2022-12-18T06:10:07.786Z,92620.59
2022-12-18T06:13:10.999Z,92614.88
2022-12-18T06:16:14.477Z,92619.59
2022-12-18T06:19:18.404Z,92620.94
2022-12-18T06:22:21.534Z,92627.81
2022-12-18T06:25:24.654Z,92631.00
2022-12-18T06:28:27.743Z,92623.44
2022-12-18T06:31:30.897Z,92615.69
2022-12-18T06:34:34.503Z,92623.94
2022-12-18T06:37:37.577Z,92630.34
2022-12-18T06:40:41.107Z,92631.31
2022-12-18T06:43:44.746Z,92628.94
2022-12-18T06:46:48.068Z,92633.66
2022-12-18T06:49:51.485Z,92637.31
2022-12-18T06:52:54.583Z,92623.38
2022-12-18T06:56:09.808Z,92627.56
2022-12-18T06:59:16.126Z,92629.72
2022-12-18T07:02:19.533Z,92633.94
2022-12-18T07:05:22.745Z,92617.63
2022-12-18T07:08:26.282Z,92623.06
2022-12-18T07:11:29.291Z,92623.59
2022-12-18T07:14:32.399Z,92622.09
2022-12-18T07:17:35.551Z,92627.50
2022-12-18T07:20:38.785Z,92637.97
2022-12-18T07:23:42.201Z,92634.28
2022-12-18T07:26:48.351Z,92640.50
2022-12-18T07:29:51.576Z,92641.84
2022-12-18T07:32:54.756Z,92645.19
2022-12-18T07:35:57.911Z,92652.94
2022-12-18T07:39:01.091Z,92646.22
2022-12-18T07:42:22.876Z,92652.44
2022-12-18T07:45:26.337Z,92639.69
2022-12-18T07:48:30.640Z,92643.84
2022-12-18T07:51:33.787Z,92652.25
2022-12-18T07:54:37.068Z,92656.56
2022-12-18T07:58:00.713Z,92656.50
2022-12-18T08:01:12.733Z,92657.25
2022-12-18T08:04:16.258Z,92664.44
2022-12-18T08:07:19.549Z,92660.88
2022-12-18T08:10:22.927Z,92662.66
2022-12-18T08:13:26.528Z,92667.47
2022-12-18T08:16:29.765Z,92662.31
2022-12-18T08:19:32.997Z,92667.91
2022-12-18T08:22:40.615Z,92662.97
2022-12-18T08:25:43.722Z,92663.16
2022-12-18T08:28:47.352Z,92668.19
2022-12-18T08:31:51.521Z,92673.09
2022-12-18T09:22:47.679Z,92688.94
2022-12-18T09:25:50.943Z,92694.25
2022-12-18T09:28:54.822Z,92689.50
2022-12-18T09:31:58.151Z,92695.69
2022-12-18T09:35:01.354Z,92695.88
2022-12-18T09:38:04.476Z,92700.31
2022-12-18T09:41:18.098Z,92694.13
2022-12-18T09:44:43.075Z,92692.97
2022-12-18T09:47:50.817Z,92690.19
2022-12-18T09:51:01.564Z,92687.69
2022-12-18T09:54:13.648Z,92704.28
2022-12-18T09:57:20.624Z,92707.75
2022-12-18T10:00:26.646Z,92710.06
2022-12-18T10:03:29.922Z,92708.59
2022-12-18T10:06:38.833Z,92703.47
2022-12-18T10:10:07.395Z,92705.91
2022-12-18T10:13:31.973Z,92704.78
2022-12-18T10:16:37.837Z,92699.75
2022-12-18T10:19:51.165Z,92701.94
2022-12-18T10:23:02.269Z,92698.59
2022-12-18T10:26:08.363Z,92700.72
2022-12-18T10:29:16.134Z,92701.41
2022-12-18T10:32:27.823Z,92706.41
2022-12-18T10:35:31.067Z,92703.31
2022-12-18T10:38:34.650Z,92709.59
2022-12-18T10:41:38.048Z,92714.84
2022-12-18T10:44:41.064Z,92707.34
2022-12-18T10:47:46.955Z,92706.19
2022-12-18T10:54:23.822Z,92714.09
2022-12-18T10:57:37.665Z,92712.06
2022-12-18T11:00:41.214Z,92711.63
2022-12-18T11:04:02.490Z,92720.06
2022-12-18T11:07:08.510Z,92707.75
2022-12-18T11:10:20.692Z,92709.38
2022-12-18T11:13:28.811Z,92707.25
2022-12-18T11:16:38.301Z,92704.59
2022-12-18T11:19:43.368Z,92703.78
2022-12-18T11:22:58.692Z,92714.84
2022-12-18T11:26:04.773Z,92701.88
2022-12-18T11:29:18.881Z,92710.84
2022-12-18T11:32:34.023Z,92701.50
2022-12-18T11:35:39.814Z,92704.69
2022-12-18T11:38:45.567Z,92696.28
2022-12-18T11:42:19.124Z,92702.69
2022-12-18T11:45:38.169Z,92701.13
2022-12-18T11:48:46.741Z,92701.59
2022-12-18T11:52:15.855Z,92705.81
2022-12-18T11:55:24.946Z,92711.50
2022-12-18T11:58:50.018Z,92711.63
2022-12-18T12:01:58.351Z,92700.69
2022-12-18T12:05:42.851Z,92706.06
2022-12-18T12:09:03.327Z,92702.53
2022-12-18T12:12:49.112Z,92707.94
2022-12-18T12:16:20.668Z,92704.00
2022-12-18T12:19:32.696Z,92691.69
2022-12-18T12:22:45.014Z,92695.16
2022-12-18T12:25:59.599Z,92689.22
2022-12-18T12:29:06.921Z,92691.75
2022-12-18T12:32:41.439Z,92690.66
2022-12-18T12:36:06.188Z,92686.34
2022-12-18T12:39:14.437Z,92687.19
2022-12-18T12:42:47.024Z,92688.13
2022-12-18T12:46:06.087Z,92690.44
2022-12-18T12:49:27.566Z,92690.28
2022-12-18T12:52:30.730Z,92681.22
2022-12-18T12:55:35.816Z,92682.72
2022-12-18T12:59:23.533Z,92676.03
2022-12-18T13:03:29.680Z,92683.84
2022-12-18T13:06:44.844Z,92683.44
2022-12-18T13:10:21.352Z,92681.97
2022-12-18T13:13:25.869Z,92679.41
2022-12-18T13:16:29.165Z,92677.59
2022-12-18T13:19:33.512Z,92670.44
2022-12-18T13:22:38.609Z,92674.22
2022-12-18T13:25:42.179Z,92655.44
2022-12-18T13:28:48.678Z,92653.13
2022-12-18T13:31:51.799Z,92648.03
2022-12-18T13:35:19.930Z,92651.28
2022-12-18T13:38:39.680Z,92647.28
2022-12-18T13:41:44.156Z,92655.00
2022-12-18T13:44:48.787Z,92652.59
2022-12-18T13:47:52.157Z,92647.84
2022-12-18T13:51:19.429Z,92636.25
2022-12-18T13:54:41.733Z,92640.44
2022-12-18T13:57:45.580Z,92644.94
2022-12-18T14:00:50.721Z,92644.25
2022-12-18T14:04:11.856Z,92641.84
2022-12-18T14:07:24.791Z,92642.59
2022-12-18T14:10:48.285Z,92632.66
2022-12-18T14:13:52.330Z,92635.97
2022-12-18T14:16:55.822Z,92628.41
2022-12-18T14:19:59.862Z,92624.47
2022-12-18T14:23:03.017Z,92612.59
2022-12-18T14:26:32.460Z,92630.31
2022-12-18T14:29:36.894Z,92627.16
2022-12-18T14:32:40.080Z,92622.31
2022-12-18T14:35:55.747Z,92626.09
2022-12-18T14:39:00.859Z,92629.66
2022-12-18T14:42:04.067Z,92622.63
2022-12-18T14:45:41.394Z,92624.75
2022-12-18T14:48:49.822Z,92628.13
2022-12-18T14:52:04.937Z,92621.94
2022-12-18T14:55:17.691Z,92628.69
2022-12-18T14:58:21.131Z,92626.72
2022-12-18T15:01:28.108Z,92625.88
2022-12-18T15:04:42.474Z,92620.53
2022-12-18T15:07:59.333Z,92628.16
2022-12-18T15:11:02.631Z,92628.03
2022-12-18T15:14:44.742Z,92626.38
2022-12-18T15:17:47.946Z,92622.53
2022-12-18T15:21:11.293Z,92619.69
2022-12-18T15:24:26.264Z,92617.81
2022-12-18T15:27:37.288Z,92606.00
2022-12-18T15:30:40.606Z,92607.41
2022-12-18T15:33:50.773Z,92606.81
2022-12-18T15:36:54.020Z,92608.44
2022-12-18T15:39:57.126Z,92593.19
2022-12-18T15:43:18.906Z,92602.69
2022-12-18T15:46:26.302Z,92599.28
2022-12-18T15:49:29.481Z,92596.66
2022-12-18T15:52:47.537Z,92601.66
2022-12-18T15:56:09.517Z,92599.09
2022-12-18T15:59:16.647Z,92601.13
2022-12-18T16:02:21.007Z,92596.34
2022-12-18T16:05:25.582Z,92589.75
2022-12-18T16:08:30.365Z,92599.22
2022-12-18T16:11:44.348Z,92587.50
2022-12-18T16:14:47.382Z,92590.25
2022-12-18T16:17:50.767Z,92593.81
2022-12-18T16:20:54.573Z,92589.59
2022-12-18T16:23:58.601Z,92584.81
2022-12-18T16:27:02.355Z,92588.94
2022-12-18T16:30:05.919Z,92579.69
2022-12-18T16:33:12.120Z,92571.78
2022-12-18T16:36:15.408Z,92582.19
2022-12-18T16:39:19.247Z,92567.41
2022-12-18T16:42:22.146Z,92574.06
2022-12-18T16:45:25.225Z,92577.25
2022-12-18T16:48:28.413Z,92567.53
2022-12-18T16:51:36.747Z,92566.50
2022-12-18T16:54:39.886Z,92572.47
2022-12-18T16:57:43.065Z,92569.03
2022-12-18T17:00:46.094Z,92574.72
2022-12-18T17:04:04.306Z,92567.47
2022-12-18T17:07:07.459Z,92567.97
2022-12-18T17:10:10.885Z,92572.84
2022-12-18T17:13:13.899Z,92574.78
2022-12-18T17:16:18.191Z,92573.44
2022-12-18T17:19:22.203Z,92569.69
2022-12-18T17:22:25.428Z,92565.53
2022-12-18T17:25:28.440Z,92567.47
2022-12-18T17:28:31.942Z,92567.84
2022-12-18T17:31:35.973Z,92565.81
2022-12-18T17:34:39.295Z,92564.94
2022-12-18T17:37:42.383Z,92563.16
2022-12-18T17:40:46.590Z,92565.41
2022-12-18T17:44:01.335Z,92557.09
2022-12-18T17:47:04.507Z,92557.84
2022-12-18T17:50:08.168Z,92555.19
2022-12-18T17:53:11.131Z,92560.28
2022-12-18T17:56:15.844Z,92562.59
2022-12-18T17:59:18.849Z,92559.03
2022-12-18T18:02:22.104Z,92554.78
2022-12-18T18:05:26.298Z,92549.91
2022-12-18T18:08:30.074Z,92555.72
2022-12-18T18:11:51.772Z,92564.38
2022-12-18T18:14:56.395Z,92566.31
2022-12-18T18:18:01.845Z,92568.53
2022-12-18T18:21:06.851Z,92567.78
2022-12-18T18:24:13.301Z,92567.47
2022-12-18T18:27:16.908Z,92570.28
2022-12-18T18:30:19.840Z,92566.72
2022-12-18T18:33:23.185Z,92563.09
2022-12-18T18:36:26.284Z,92554.88
2022-12-18T18:39:30.479Z,92557.38
2022-12-18T18:42:33.502Z,92560.91
2022-12-18T18:45:36.623Z,92565.19
2022-12-18T18:48:42.482Z,92554.00
2022-12-18T18:51:46.843Z,92546.69
2022-12-18T18:55:11.516Z,92545.16
2022-12-18T18:58:13.100Z,92544.34
2022-12-18T19:01:18.706Z,92538.31
2022-12-18T19:04:21.884Z,92535.22
2022-12-18T19:07:30.492Z,92532.47
2022-12-18T19:10:34.228Z,92533.94
2022-12-18T19:13:37.249Z,92537.22
2022-12-18T19:16:41.527Z,92533.25
2022-12-18T19:19:44.710Z,92535.88
2022-12-18T19:22:55.090Z,92536.84
2022-12-18T19:26:27.842Z,92528.44
2022-12-18T19:29:25.762Z,92526.28
2022-12-18T19:32:28.969Z,92532.72
2022-12-18T19:35:32.308Z,92530.44
2022-12-18T19:38:36.153Z,92535.22
2022-12-18T19:41:39.758Z,92533.78
2022-12-18T19:44:42.959Z,92528.75
2022-12-18T19:47:47.185Z,92523.00
2022-12-18T19:50:50.252Z,92524.19
2022-12-18T19:53:58.462Z,92520.41
2022-12-18T19:57:03.182Z,92523.31
2022-12-18T20:00:06.304Z,92523.28
2022-12-18T20:03:25.193Z,92524.78
2022-12-18T20:06:34.829Z,92528.53
2022-12-18T20:09:37.999Z,92527.28
2022-12-18T20:12:41.286Z,92523.94
2022-12-18T20:15:45.498Z,92521.38
2022-12-18T20:18:49.885Z,92519.22
2022-12-18T20:21:53.293Z,92522.19
2022-12-18T20:24:56.587Z,92523.66
2022-12-18T20:27:59.885Z,92522.00
2022-12-18T20:31:05.280Z,92516.28
2022-12-18T20:34:09.063Z,92525.19
2022-12-18T20:37:12.570Z,92522.25
2022-12-18T20:40:15.934Z,92533.84
2022-12-18T20:43:18.923Z,92537.22
2022-12-18T20:46:22.157Z,92525.75
2022-12-18T20:49:26.557Z,92529.16
2022-12-18T20:52:29.671Z,92529.59
2022-12-18T20:55:32.754Z,92519.94
2022-12-18T20:58:36.661Z,92513.16
2022-12-18T21:01:45.291Z,92520.25
2022-12-18T21:04:52.084Z,92521.78
2022-12-18T21:07:55.079Z,92518.09
2022-12-18T21:11:31.938Z,92516.63
2022-12-18T21:14:35.661Z,92509.88
2022-12-18T21:17:44.591Z,92512.81
2022-12-18T21:20:48.117Z,92511.81
2022-12-18T21:23:51.755Z,92506.56
2022-12-18T21:26:55.048Z,92506.19
2022-12-18T21:29:58.206Z,92507.50
2022-12-18T21:33:01.288Z,92511.72
2022-12-18T21:36:08.716Z,92508.88
2022-12-18T21:39:11.811Z,92507.97
2022-12-18T21:42:33.407Z,92502.16
2022-12-18T21:45:36.419Z,92497.50
2022-12-18T21:48:44.002Z,92497.59
2022-12-18T21:51:47.238Z,92499.56
2022-12-18T21:54:50.308Z,92513.72
2022-12-18T21:57:54.968Z,92511.13
2022-12-18T22:00:58.300Z,92514.50
2022-12-18T22:04:01.521Z,92508.00
2022-12-18T22:07:05.901Z,92500.84
2022-12-18T22:10:09.743Z,92500.28
2022-12-18T22:13:12.840Z,92501.34
2022-12-18T22:16:15.970Z,92500.66
2022-12-18T22:19:20.235Z,92490.56
2022-12-18T22:22:23.548Z,92492.81
2022-12-18T22:25:26.683Z,92486.78
2022-12-18T22:28:51.325Z,92488.91
2022-12-18T22:31:54.426Z,92489.13
2022-12-18T22:35:01.722Z,92490.66
2022-12-18T22:38:08.394Z,92481.72
2022-12-18T22:41:11.554Z,92490.63
2022-12-18T22:44:15.211Z,92489.53
2022-12-18T22:47:24.249Z,92488.84
2022-12-18T22:50:29.728Z,92486.28
2022-12-18T22:53:32.892Z,92491.38
2022-12-18T22:56:36.029Z,92508.47
2022-12-18T22:59:39.073Z,92509.78
2022-12-18T23:02:42.324Z,92494.63
2022-12-18T23:05:45.703Z,92495.75
2022-12-18T23:08:54.391Z,92478.66
2022-12-18T23:11:59.072Z,92479.88
2022-12-18T23:15:02.208Z,92483.91
2022-12-18T23:18:05.467Z,92481.59
2022-12-18T23:21:16.879Z,92489.75
2022-12-18T23:24:20.351Z,92490.19
2022-12-18T23:27:23.443Z,92480.66
2022-12-18T23:30:26.592Z,92479.56
2022-12-18T23:33:29.853Z,92491.81
2022-12-18T23:36:33.436Z,92492.25
2022-12-18T23:39:47.012Z,92488.81
2022-12-18T23:42:50.068Z,92493.06
2022-12-18T23:45:55.756Z,92489.47
2022-12-18T23:49:00.374Z,92493.75
2022-12-18T23:52:03.444Z,92500.50
2022-12-18T23:55:07.100Z,92513.09
2022-12-18T23:58:18.711Z,92509.69
